Go Pro

iShares MSCI Italy ETF (EWI) Institutional Ownership

iShares MSCI Italy ETF logo
$62.02 +0.64 (+1.04%)
As of 04:10 PM Eastern

Institutional Ownership Changes (13F Filings) for iShares MSCI Italy ETF (NYSEARCA:EWI)

Current
Institutional Ownership
Percentage
37.96%
Number of
Institutional Buyers
(last 12 months)
80
Total
Institutional Inflows
(last 12 months)
$104.25M
Number of
Institutional Sellers
(last 12 months)
28
Total
Institutional Outflows
(last 12 months)
$121.52M
Get EWI Insider Trade Alerts

Want to know when executives and insiders are buying or selling iShares MSCI Italy ETF stock? Sign up for InsiderTrades.com's daily newsletter to get the latest insider transactions delivered to your inbox daily.

SMS is currently available in Australia, Belgium, Canada, France, Germany, Ireland, Italy, New Zealand, the Netherlands, Singapore, South Africa, Spain, Switzerland, the United Kingdom, and the United States. By entering your phone number and clicking the sign-up button, you agree to receive periodic text messages from MarketBeat at the phone number you submitted, including texts that may be sent using an automatic telephone dialing system. Message and data rates may apply. Message frequency will vary. Messages will consist of stock alerts, news stories, and partner advertisements/offers. Consent is not a condition of the purchase of any goods or services. Text HELP for help/customer support. Unsubscribe at any time by replying "STOP" to any text message that you receive from MarketBeat or by visiting our mailing preferences page. Read our full terms of service and privacy policy.
Skip Chart & View Institutional Buying and Selling Data

EWI Institutional Buying and Selling by Quarter

iShares MSCI Italy ETF Major Shareholders & Ownership History

Reporting DateMajor Shareholder NameShares HeldMarket Value% of PortfolioQuarterly Change in SharesOwnership in CompanyDetails
8/23/2026 Nilsine Partners LLC179,139$10.61M0.7%+1.6%1.061%
8/22/2026 Knollwood Investment Advisory LLC17,000$1.01M0.1%N/A0.101%
8/21/2026 Pacifica Partners Inc.500$30K0.0%N/A0.003%
8/21/2026 Cairn Investment Group Inc.263,410$15.60M6.6%N/A1.560%
7/9/2026 Contravisory Investment Management Inc.23,232$1.38M0.2%+2.0%0.173%
6/16/2026 Empowered Funds LLC4,365$233K0.0%N/A0.038%
5/18/2026 Royal Bank of Canada23,859$1.27M0.0%-29.8%0.208%
5/18/2026 Empowered Funds LLC4,365$233K0.0%N/A0.038%
5/13/2026 Cetera Investment Advisers4,808$257K0.0%-62.7%0.042%
5/12/2026 CacheTech Inc.155,026$8.28M1.6%+2.4%1.350%
5/5/2026 Bank of New York Mellon Corp6,536$349K0.0%+20.4%0.057%
5/4/2026 Legacy Capital Group California Inc.22,540$1.20M0.5%-5.6%0.196%
5/4/2026 Innealta Capital LLC10,644$569K0.4%-76.8%0.093%
5/2/2026 Global Assets Advisory LLC8,990$480K0.1%+9.6%0.078%
5/2/2026 Arlington Capital Management Inc.102,278$5.46M3.1%+69.0%0.891%
5/1/2026 Fifth Third Bancorp732$39K0.0%N/A0.006%
4/30/2026 Hsbc Holdings PLC2,357,883$125.96M0.1%-25.5%20.539%
4/30/2026 Kestra Advisory Services LLC9,439$504K0.0%+169.8%0.082%
4/29/2026 Montag A & Associates Inc.66,713$3.56M0.2%+2.2%0.581%
4/27/2026 Moran Wealth Management LLC176,338$9.42M0.3%+13.3%1.536%
4/22/2026 Onyx Bridge Wealth Group LLC34,095$1.82M0.2%+23.3%0.297%
4/21/2026 Parkway Wealth Management Group LLC622,607$35.51M4.5%+1.5%5.423%
4/21/2026 Contravisory Investment Management Inc.22,773$1.22M0.2%-5.5%0.198%
4/20/2026 Trust Co. of Oklahoma10,572$565K0.2%+169.7%0.092%
3/20/2026 Hsbc Holdings PLC3,164,265$171.92M0.1%+0.1%24.529%
3/6/2026 Hsbc Holdings PLC3,164,265$171.92M0.1%+0.1%24.529%
2/19/2026 Invesco Ltd.9,194$500K0.0%+55.4%0.071%
2/18/2026 Onyx Bridge Wealth Group LLC27,661$1.50M0.2%-4.2%0.214%
2/18/2026 Beacon Pointe Advisors LLC4,049$220K0.0%N/A0.031%
2/18/2026 CacheTech Inc.151,358$8.22M1.5%-1.1%1.173%
2/18/2026 Zacks Investment Management50,055$2.72M0.0%+120.4%0.388%
2/18/2026 Adams Wealth Management146,716$7.97M1.7%-4.1%1.137%
2/18/2026 Prostatis Group LLC75,093$4.08M1.0%+11.4%0.582%
2/18/2026 Quadrature Capital Ltd22,289$1.21M0.0%N/A0.173%
2/18/2026 Millennium Management LLC3,923$213K0.0%N/A0.030%
2/17/2026 DV Equities LLC494$27K0.0%N/A0.004%
2/17/2026 Cetera Investment Advisers12,879$700K0.0%+15.8%0.100%
2/17/2026 Equitable Holdings Inc.87,828$4.77M0.0%-1.2%0.681%
2/17/2026 Osaic Holdings Inc.18,119$984K0.0%+13.5%0.140%
2/17/2026 Advisory Services Network LLC12,654$687K0.0%+267.5%0.098%
The REAL Reason Trump is Invading Iran (Ad)

For a moment… Forget about Trump’s ties to Israel. Forget about reports of Iran’s nuclear program. Because my research has led me to believe we’re risking World War 3 with Iran for a completely different reason.tc pixel

Click here to find out what it is.
2/17/2026 Royal Bank of Canada34,000$1.85M0.0%+24.0%0.264%
2/16/2026 MML Investors Services LLC39,232$2.13M0.0%+3.9%0.304%
2/16/2026 Mariner LLC13,919$756K0.0%-49.0%0.108%
2/13/2026 Kestra Advisory Services LLC3,498$190K0.0%N/A0.027%
2/13/2026 Marshall Wace LLP15,120$821K0.0%+174.4%0.117%
2/13/2026 Stifel Financial Corp3,969$216K0.0%N/A0.031%
2/13/2026 Schroder Investment Management Group499,500$27.27M0.0%+21.5%3.872%
2/13/2026 Integrated Wealth Concepts LLC24,741$1.34M0.0%+31.8%0.192%
2/13/2026 Vontobel Holding Ltd.13,900$755K0.0%+39.0%0.108%
2/13/2026 Wells Fargo & Company MN95,940$5.21M0.0%+20.2%0.744%
2/12/2026 Renaissance Technologies LLC10,000$543K0.0%-11.5%0.078%
2/12/2026 AlphaCentric Advisors LLC2,470$134K0.1%N/A0.019%
2/12/2026 Sepio Capital LP50,460$2.74M0.2%+1.0%0.391%
2/11/2026 Meeder Asset Management Inc.6,900$375K0.0%N/A0.053%
2/11/2026 Simplex Trading LLC4,105$223K0.0%N/A0.032%
2/11/2026 Strategic Advocates LLC690$38K0.0%+94.9%0.005%
2/11/2026 LPL Financial LLC244,532$13.29M0.0%+9.0%1.896%
2/11/2026 O Shaughnessy Asset Management LLC857$47K0.0%+186.6%0.007%
2/10/2026 Cibc World Market Inc.243,629$13.24M0.0%-1.8%1.889%
2/10/2026 Goldman Sachs Group Inc.4,767$259K0.0%N/A0.037%
2/10/2026 Hilltop Partners LLC7,029$382K0.1%+2.9%0.054%
2/9/2026 Harbour Investments Inc.1,200$65K0.0%N/A0.009%
2/9/2026 Global Assets Advisory LLC8,205$446K0.1%+12.8%0.064%
2/9/2026 Arrow Investment Advisors LLC7,269$395K0.4%-28.4%0.056%
2/6/2026 BlueStem Wealth Partners LLC65,818$3.58M0.4%+1.6%0.510%
2/6/2026 IFP Advisors Inc2,150$117K0.0%N/A0.017%
2/6/2026 HighTower Advisors LLC52,712$2.86M0.0%+3.1%0.409%
2/5/2026 Northwestern Mutual Wealth Management Co.117,314$6.37M0.0%+112,701.9%0.909%
2/5/2026 Thrivent Financial for Lutherans131,175$7.16M0.0%+1.3%1.017%
2/5/2026 Idaho Trust Co22,503$1.22M0.4%+56.0%0.174%
2/4/2026 Biltmore Family Office LLC509$28K0.0%N/A0.004%
2/3/2026 Providence First Trust Co12,784$695K0.2%N/A0.099%
2/2/2026 Montag A & Associates Inc.65,301$3.55M0.2%+25.7%0.506%
2/2/2026 Benjamin Edwards Inc.34,344$1.87M0.0%+27.1%0.266%
1/30/2026 Innealta Capital LLC45,897$2.49M1.4%-5.4%0.356%
1/29/2026 UBS Group AG289,258$15.72M0.0%+45.3%2.242%
1/29/2026 Sanctuary Advisors LLC7,235$393K0.0%-2.5%0.056%
1/28/2026 Legacy Capital Group California Inc.23,871$1.30M0.3%-4.2%0.185%
1/27/2026 TD Waterhouse Canada Inc.119,496$6.49M0.0%N/A0.926%
1/26/2026 Moran Wealth Management LLC155,574$8.45M0.3%-28.9%1.206%
1/26/2026 Mirae Asset Global Investments Co. Ltd.3,090$168K0.0%N/A0.024%
1/26/2026 Monument Capital Management74,919$4.07M1.0%+4.7%0.581%
1/15/2026 Nilsine Partners LLC64,085$3.48M0.3%+0.7%0.497%
1/15/2026 Cobblestone Asset Management LLC12,698$690K0.3%+2.5%0.098%
1/14/2026 Fluent Financial LLC31,679$1.72M0.7%N/A0.246%
1/14/2026 BFI Infinity Ltd.3,904$212K0.1%-200.0%0.030%
1/14/2026 Tradewinds Capital Management LLC294,688$16.01M3.4%-58.2%2.284%
1/12/2026 DAVENPORT & Co LLC21,620$1.18M0.0%-2.0%0.168%
1/12/2026 Contravisory Investment Management Inc.24,104$1.31M0.3%-4.1%0.187%
1/6/2026 Arlington Capital Management Inc.60,524$3.29M2.0%+0.6%0.469%
Your book attached (Ad)

Bill Poulos is giving away his 'Safe Trade Options Formula' book for free - but only for a limited time through a temporary download link. He plans to charge for it soon. Download your copy now and lock it in at no cost, regardless of future pricing.tc pixel

Download the Safe Trade Options Formula book for free before access closes
1/1/2026 JPMorgan Chase & Co.54,356$2.82M0.0%+128.7%0.453%
11/18/2025 Advisory Services Network LLC3,443$179K0.0%N/A0.029%
11/17/2025 CacheTech Inc.153,018$7.95M1.6%-21.0%1.275%
11/17/2025 New Vernon Capital Holdings II LLC63,914$3.32M1.5%N/A0.533%
11/17/2025 Mariner LLC27,281$1.42M0.0%+5.9%0.227%
11/17/2025 Integrated Wealth Concepts LLC18,774$975K0.0%-38.4%0.156%
11/17/2025 Citadel Advisors LLC33,710$1.75M0.0%+450.5%0.281%
11/17/2025 Banco Bilbao Vizcaya Argentaria S.A.335,763$17.43M0.1%-65.0%2.798%
11/17/2025 Bank of America Corp DE55,242$2.87M0.0%-64.5%0.460%
11/17/2025 Ameriprise Financial Inc.629,250$32.68M0.0%-11.5%5.244%


EWI Institutional Ownership - Frequently Asked Questions

During the previous two years, 123 institutional investors and hedge funds held shares of iShares MSCI Italy ETF. The most heavily invested institutionals were Hsbc Holdings PLC ($125.96M), The Manufacturers Life Insurance Company ($42.39M), Parkway Wealth Management Group LLC ($35.51M), Ameriprise Financial Inc. ($32.68M), Schroder Investment Management Group ($27.27M), Banco Bilbao Vizcaya Argentaria S.A. ($17.43M), and Tradewinds Capital Management LLC ($16.01M).Learn more on iShares MSCI Italy ETF's institutional investors.

37.96% of iShares MSCI Italy ETF's stock is owned by institutional investors. Learn more on EWI's institutional investor holdings.

Of the 113 institutional investors that purchased iShares MSCI Italy ETF's stock in the last 24 months, the following investors and hedge funds have bought the highest volume of shares: The Manufacturers Life Insurance Company ($1.00M), Banco Bilbao Vizcaya Argentaria S.A. ($958.58K), Tradewinds Capital Management LLC ($704.79K), Schroder Investment Management Group ($499.50K), Cairn Investment Group Inc. ($263.41K), Principal Financial Group Inc. ($197.11K), and Flow Traders U.S. LLC ($191.54K).

Institutional investors have bought a total of 1,932,504 shares in the last 24 months. This purchase volume represents approximately $104.25M in transactions.

Of the 28 institutional investors that sold iShares MSCI Italy ETF's stock in the last 24 months, the following investors and hedge funds have sold the highest volume of shares: Hsbc Holdings PLC ($806.38K), Banco Bilbao Vizcaya Argentaria S.A. ($622.81K), Tradewinds Capital Management LLC ($410.11K), Bank of America Corp DE ($100.38K), Ameriprise Financial Inc. ($81.64K), CacheTech Inc. ($63.32K), and Moran Wealth Management LLC ($63.20K).

Institutional investors have sold a total of 2,292,850 shares in the last 24 months. This volume of shares sold represents approximately $121.52M in transactions.



Institutional ownership data for NYSEARCA:EWI is compiled from quarterly 13F filings submitted to the U.S. Securities and Exchange Commission (SEC), with the most recent received on 8/23/2026. New 13F filings are added each quarter as they're published.
From Our Partners